createdAt,value
2022-12-08T00:02:15.470Z,28.46
2022-12-08T00:05:04.870Z,28.56
2022-12-08T00:07:54.274Z,28.62
2022-12-08T00:10:48.472Z,28.73
2022-12-08T00:13:19.192Z,28.81
2022-12-08T00:15:50.070Z,28.87
2022-12-08T00:18:20.821Z,28.93
2022-12-08T00:20:57.318Z,29.02
2022-12-08T00:23:28.260Z,29.08
2022-12-08T00:26:02.556Z,29.09
2022-12-08T00:28:34.472Z,29.11
2022-12-08T00:31:12.079Z,29.18
2022-12-08T00:33:42.451Z,29.25
2022-12-08T00:36:15.310Z,29.28
2022-12-08T00:38:46.037Z,29.29
2022-12-08T00:41:40.732Z,29.38
2022-12-08T00:44:16.446Z,29.43
2022-12-08T00:46:47.374Z,29.50
2022-12-08T00:49:19.259Z,29.51
2022-12-08T00:51:50.063Z,29.55
2022-12-08T00:54:22.195Z,29.60
2022-12-08T00:56:53.031Z,29.61
2022-12-08T00:59:23.875Z,29.63
2022-12-08T01:01:54.195Z,29.65
2022-12-08T01:04:25.129Z,29.71
2022-12-08T01:06:56.471Z,29.77
2022-12-08T01:09:27.313Z,29.78
2022-12-08T01:11:57.878Z,29.80
2022-12-08T01:14:28.967Z,29.82
2022-12-08T01:16:59.248Z,29.83
2022-12-08T01:19:31.836Z,29.87
2022-12-08T01:22:02.513Z,29.87
2022-12-08T01:24:33.568Z,29.92
2022-12-08T01:27:04.282Z,29.99
2022-12-08T01:29:35.491Z,29.97
2022-12-08T01:32:05.641Z,30.03
2022-12-08T01:34:36.615Z,30.04
2022-12-08T01:37:07.437Z,30.03
2022-12-08T01:39:38.204Z,30.10
2022-12-08T01:42:24.317Z,30.11
2022-12-08T01:44:58.780Z,30.18
2022-12-08T01:47:38.065Z,30.23
2022-12-08T01:50:11.895Z,30.24
2022-12-08T01:52:47.800Z,30.27
2022-12-08T01:55:26.675Z,30.26
2022-12-08T01:58:24.670Z,30.26
2022-12-08T02:00:55.925Z,30.20
2022-12-08T02:03:31.124Z,30.20
2022-12-08T02:06:01.790Z,30.22
2022-12-08T02:08:32.921Z,30.25
2022-12-08T02:11:03.750Z,30.22
2022-12-08T02:13:34.588Z,30.22
2022-12-08T02:16:22.694Z,30.21
2022-12-08T02:19:34.032Z,30.34
2022-12-08T02:22:08.711Z,30.43
2022-12-08T02:24:47.485Z,30.44
2022-12-08T02:27:45.616Z,30.56
2022-12-08T02:30:48.835Z,30.68
2022-12-08T02:34:13.836Z,30.69
2022-12-08T02:37:02.101Z,30.81
2022-12-08T02:39:47.064Z,30.81
2022-12-08T02:42:32.361Z,30.76
2022-12-08T02:45:23.807Z,30.74
2022-12-08T02:47:54.705Z,30.71
2022-12-08T02:50:25.404Z,30.71
2022-12-08T02:52:56.082Z,30.71
2022-12-08T02:55:34.320Z,30.74
2022-12-08T02:58:31.642Z,30.82
2022-12-08T03:01:29.956Z,30.73
2022-12-08T03:04:22.977Z,30.73
2022-12-08T03:07:05.000Z,30.75
2022-12-08T03:09:36.109Z,30.75
2022-12-08T03:12:24.681Z,30.93
2022-12-08T03:14:57.680Z,31.01
2022-12-08T03:17:31.149Z,31.08
2022-12-08T03:20:05.985Z,31.08
2022-12-08T03:22:36.716Z,31.13
2022-12-08T03:25:08.257Z,31.19
2022-12-08T03:27:39.654Z,31.20
2022-12-08T03:30:10.663Z,31.19
2022-12-08T03:32:49.772Z,31.19
2022-12-08T03:35:24.396Z,31.22
2022-12-08T03:38:04.408Z,31.23
2022-12-08T03:40:35.260Z,31.21
2022-12-08T03:43:05.598Z,31.25
2022-12-08T03:45:36.544Z,31.25
2022-12-08T03:48:07.398Z,31.17
2022-12-08T03:50:38.649Z,31.16
2022-12-08T03:53:09.331Z,31.14
2022-12-08T03:55:39.871Z,31.12
2022-12-08T03:58:10.401Z,31.23
2022-12-08T04:00:44.391Z,31.26
2022-12-08T04:03:14.811Z,31.33
2022-12-08T04:05:45.460Z,31.38
2022-12-08T04:08:19.417Z,31.44
2022-12-08T04:10:50.321Z,31.51
2022-12-08T04:13:20.604Z,31.68
2022-12-08T04:15:51.823Z,31.73
2022-12-08T04:18:22.367Z,31.78
2022-12-08T04:20:52.626Z,31.88
2022-12-08T04:23:23.099Z,31.95
2022-12-08T04:25:54.441Z,31.97
2022-12-08T04:28:25.736Z,32.10
2022-12-08T04:31:00.715Z,32.17
2022-12-08T04:33:32.277Z,32.27
2022-12-08T04:36:07.559Z,32.35
2022-12-08T04:38:37.838Z,32.32
2022-12-08T04:41:08.566Z,32.45
2022-12-08T04:43:38.809Z,32.53
2022-12-08T04:46:13.526Z,32.55
2022-12-08T04:48:47.164Z,32.53
2022-12-08T04:51:20.596Z,32.58
2022-12-08T04:53:51.419Z,32.70
2022-12-08T04:56:22.054Z,32.60
2022-12-08T04:58:55.218Z,32.58
2022-12-08T05:01:26.390Z,32.71
2022-12-08T05:03:57.285Z,32.63
2022-12-08T05:06:28.455Z,32.60
2022-12-08T05:08:59.541Z,32.78
2022-12-08T05:11:30.223Z,32.90
2022-12-08T05:14:01.011Z,32.97
2022-12-08T05:16:32.836Z,33.04
2022-12-08T05:19:03.442Z,33.10
2022-12-08T05:21:33.861Z,33.19
2022-12-08T05:24:08.144Z,33.25
2022-12-08T05:26:39.442Z,33.22
2022-12-08T05:29:09.771Z,33.18
2022-12-08T05:31:40.055Z,33.14
2022-12-08T05:34:10.625Z,33.05
2022-12-08T05:36:41.355Z,33.02
2022-12-08T05:39:16.174Z,32.94
2022-12-08T05:41:46.468Z,32.89
2022-12-08T05:44:17.145Z,32.95
2022-12-08T05:46:47.461Z,33.04
2022-12-08T05:49:18.400Z,32.99
2022-12-08T05:51:48.976Z,33.04
2022-12-08T05:54:19.790Z,33.10
2022-12-08T05:56:50.646Z,33.19
2022-12-08T05:59:24.279Z,33.25
2022-12-08T06:01:55.349Z,33.42
2022-12-08T06:04:25.802Z,33.55
2022-12-08T06:06:56.634Z,33.59
2022-12-08T06:09:26.985Z,33.60
2022-12-08T06:12:01.981Z,33.72
2022-12-08T06:14:36.413Z,33.80
2022-12-08T06:17:06.818Z,33.86
2022-12-08T06:19:37.791Z,33.87
2022-12-08T06:22:08.281Z,33.85
2022-12-08T06:24:38.989Z,33.80
2022-12-08T06:27:09.311Z,33.61
2022-12-08T06:29:40.034Z,33.59
2022-12-08T06:32:10.605Z,33.55
2022-12-08T06:34:41.259Z,33.49
2022-12-08T06:37:12.163Z,33.38
2022-12-08T06:39:42.481Z,33.36
2022-12-08T06:42:31.328Z,33.24
2022-12-08T06:45:01.842Z,33.22
2022-12-08T06:47:32.847Z,33.12
2022-12-08T06:50:04.225Z,33.05
2022-12-08T06:52:40.869Z,33.01
2022-12-08T06:55:35.315Z,32.92
2022-12-08T06:58:07.587Z,32.90
2022-12-08T07:00:38.146Z,32.87
2022-12-08T07:03:10.126Z,32.83
2022-12-08T07:05:40.884Z,32.83
2022-12-08T07:08:11.701Z,32.89
2022-12-08T07:10:42.971Z,32.98
2022-12-08T07:13:13.573Z,32.97
2022-12-08T07:15:44.686Z,32.96
2022-12-08T07:18:15.328Z,33.02
2022-12-08T07:20:46.239Z,33.03
2022-12-08T07:23:16.630Z,33.02
2022-12-08T07:25:47.600Z,33.01
2022-12-08T07:28:17.878Z,32.98
2022-12-08T07:30:48.451Z,32.96
2022-12-08T07:33:19.372Z,32.94
2022-12-08T07:36:00.250Z,32.91
2022-12-08T07:38:31.517Z,32.86
2022-12-08T07:41:02.796Z,32.86
2022-12-08T07:43:33.981Z,32.88
2022-12-08T07:46:04.386Z,32.84
2022-12-08T07:48:35.000Z,32.78
2022-12-08T07:51:06.801Z,32.76
2022-12-08T07:53:37.298Z,32.73
2022-12-08T07:56:08.874Z,32.72
2022-12-08T07:58:39.758Z,32.66
2022-12-08T08:01:30.513Z,32.65
2022-12-08T08:04:03.262Z,32.64
2022-12-08T08:06:35.629Z,32.55
2022-12-08T08:09:37.718Z,32.62
2022-12-08T08:12:30.215Z,32.52
2022-12-08T08:14:58.992Z,32.53
2022-12-08T08:17:30.595Z,32.50
2022-12-08T08:20:01.862Z,32.49
2022-12-08T08:22:32.852Z,32.45
2022-12-08T08:25:03.918Z,32.47
2022-12-08T08:27:34.237Z,32.47
2022-12-08T08:30:07.102Z,32.46
2022-12-08T08:32:38.220Z,32.44
2022-12-08T08:35:10.449Z,32.44
2022-12-08T08:37:45.594Z,32.40
2022-12-08T08:40:20.902Z,32.39
2022-12-08T08:42:53.728Z,32.37
2022-12-08T08:45:24.459Z,32.37
2022-12-08T08:47:55.114Z,32.33
2022-12-08T08:50:25.620Z,32.32
2022-12-08T08:52:55.916Z,32.29
2022-12-08T08:55:26.681Z,32.23
2022-12-08T08:57:57.145Z,32.22
2022-12-08T09:00:28.908Z,32.21
2022-12-08T09:02:59.514Z,32.17
2022-12-08T09:05:30.288Z,32.17
2022-12-08T09:08:00.564Z,32.13
2022-12-08T09:10:31.261Z,32.10
2022-12-08T09:13:01.511Z,32.09
2022-12-08T09:15:32.903Z,32.00
2022-12-08T09:18:03.336Z,32.08
2022-12-08T09:20:34.946Z,32.04
2022-12-08T09:23:05.612Z,32.03
2022-12-08T09:25:36.094Z,31.98
2022-12-08T09:28:06.457Z,31.95
2022-12-08T09:30:37.008Z,31.97
2022-12-08T09:33:07.530Z,31.95
2022-12-08T09:35:37.909Z,31.94
2022-12-08T09:38:14.271Z,31.90
2022-12-08T09:40:51.081Z,31.92
2022-12-08T09:43:42.136Z,31.89
2022-12-08T09:46:15.849Z,31.82
2022-12-08T09:48:56.795Z,31.85
2022-12-08T09:51:32.988Z,31.83
2022-12-08T09:54:17.329Z,31.78
2022-12-08T09:56:47.994Z,31.75
2022-12-08T09:59:32.428Z,31.77
2022-12-08T10:02:03.864Z,31.74
2022-12-08T10:04:39.180Z,31.77
2022-12-08T10:07:23.098Z,31.78
2022-12-08T10:10:14.441Z,31.75
2022-12-08T10:13:04.796Z,31.80
2022-12-08T10:15:48.430Z,31.75
2022-12-08T10:18:27.226Z,31.71
2022-12-08T10:21:23.201Z,31.73
2022-12-08T10:23:58.066Z,31.70
2022-12-08T10:26:33.535Z,31.70
2022-12-08T10:29:08.017Z,31.70
2022-12-08T10:31:38.772Z,31.66
2022-12-08T10:34:35.164Z,31.69
2022-12-08T10:37:11.299Z,31.63
2022-12-08T10:39:46.726Z,31.59
2022-12-08T10:42:22.510Z,31.60
2022-12-08T10:45:16.638Z,31.62
2022-12-08T10:47:57.573Z,31.63
2022-12-08T10:50:31.283Z,31.56
2022-12-08T10:53:11.333Z,31.51
2022-12-08T10:56:05.143Z,31.49
2022-12-08T10:58:45.952Z,31.41
2022-12-08T11:01:26.081Z,31.40
2022-12-08T11:03:57.764Z,31.35
2022-12-08T11:06:34.208Z,31.42
2022-12-08T11:09:24.935Z,31.34
2022-12-08T11:11:59.717Z,31.32
2022-12-08T11:14:33.602Z,31.29
2022-12-08T11:17:28.678Z,31.28
2022-12-08T11:20:23.887Z,31.30
2022-12-08T11:22:56.676Z,31.28
2022-12-08T11:25:31.300Z,31.26
2022-12-08T11:28:03.390Z,31.29
2022-12-08T11:30:43.248Z,31.25
2022-12-08T11:33:29.051Z,31.22
2022-12-08T11:36:08.701Z,31.16
2022-12-08T11:38:43.790Z,31.15
2022-12-08T11:41:24.330Z,31.10
2022-12-08T11:44:05.920Z,31.08
2022-12-08T11:46:40.511Z,31.06
2022-12-08T11:49:16.586Z,31.06
2022-12-08T11:51:56.299Z,31.06
2022-12-08T11:54:43.459Z,31.00
2022-12-08T11:57:21.797Z,31.04
2022-12-08T11:59:53.866Z,30.95
2022-12-08T12:02:30.897Z,30.96
2022-12-08T12:05:47.858Z,31.11
2022-12-08T12:08:46.422Z,31.21
2022-12-08T12:12:20.126Z,31.25
2022-12-08T12:15:20.896Z,31.27
2022-12-08T12:18:09.752Z,31.31
2022-12-08T12:21:07.197Z,31.37
2022-12-08T12:23:48.045Z,31.36
2022-12-08T12:26:31.019Z,31.37
2022-12-08T12:29:07.424Z,31.35
2022-12-08T12:31:44.109Z,31.35
2022-12-08T12:34:38.062Z,31.41
2022-12-08T12:37:15.312Z,31.36
2022-12-08T12:39:54.083Z,31.36
2022-12-08T12:42:43.143Z,31.34
2022-12-08T12:45:27.123Z,31.34
2022-12-08T12:47:57.647Z,31.29
2022-12-08T12:50:39.532Z,31.32
2022-12-08T12:53:23.830Z,31.17
2022-12-08T12:56:03.355Z,31.27
2022-12-08T12:58:33.688Z,31.27
2022-12-08T13:01:13.709Z,31.23
2022-12-08T13:03:46.912Z,31.23
2022-12-08T13:06:25.748Z,31.23
2022-12-08T13:08:58.013Z,31.20
2022-12-08T13:11:28.980Z,31.22
2022-12-08T13:14:04.777Z,31.22
2022-12-08T13:16:41.096Z,31.19
2022-12-08T13:19:17.917Z,31.21
2022-12-08T13:21:48.501Z,31.24
2022-12-08T13:24:34.574Z,31.27
2022-12-08T13:27:05.018Z,31.26
2022-12-08T13:29:38.181Z,31.21
2022-12-08T13:32:14.498Z,31.22
2022-12-08T13:34:53.955Z,31.17
2022-12-08T13:37:39.658Z,31.18
2022-12-08T13:40:18.181Z,31.18
2022-12-08T13:42:51.300Z,31.16
2022-12-08T13:46:12.227Z,31.18
2022-12-08T13:53:49.183Z,31.20
2022-12-08T13:55:49.758Z,31.13
2022-12-08T13:57:38.790Z,31.13
2022-12-08T14:00:17.545Z,31.11
2022-12-08T14:02:50.549Z,31.13
2022-12-08T14:05:40.823Z,31.12
2022-12-08T14:11:40.044Z,31.15
2022-12-08T14:15:00.672Z,31.16
2022-12-08T14:17:24.236Z,31.07
2022-12-08T14:20:00.401Z,31.09
2022-12-08T14:22:37.618Z,31.08
2022-12-08T14:25:12.774Z,31.05
2022-12-08T14:27:43.644Z,31.04
2022-12-08T14:30:17.284Z,31.07
2022-12-08T14:32:55.767Z,31.04
2022-12-08T14:35:37.909Z,31.02
2022-12-08T14:38:18.540Z,31.04
2022-12-08T14:40:51.179Z,31.04
2022-12-08T14:43:22.235Z,30.96
2022-12-08T14:45:54.322Z,30.97
2022-12-08T14:48:42.970Z,30.99
2022-12-08T14:51:23.059Z,30.97
2022-12-08T14:54:03.093Z,30.99
2022-12-08T14:56:37.880Z,30.97
2022-12-08T14:59:31.070Z,30.92
2022-12-08T15:02:26.650Z,30.96
2022-12-08T15:05:23.393Z,30.97
2022-12-08T15:07:56.182Z,30.88
2022-12-08T15:10:28.966Z,30.86
2022-12-08T15:13:21.924Z,30.78
2022-12-08T15:15:58.655Z,30.81
2022-12-08T15:18:37.888Z,30.77
2022-12-08T15:21:10.111Z,30.78
2022-12-08T15:23:50.474Z,30.80
2022-12-08T15:26:23.276Z,30.77
2022-12-08T15:28:54.327Z,30.76
2022-12-08T15:31:25.845Z,30.77
2022-12-08T15:33:56.712Z,30.75
2022-12-08T15:36:29.729Z,30.75
2022-12-08T15:39:00.202Z,30.73
2022-12-08T15:41:30.617Z,30.75
2022-12-08T15:44:01.678Z,30.72
2022-12-08T15:46:32.646Z,30.73
2022-12-08T15:49:03.646Z,30.72
2022-12-08T15:51:37.755Z,30.72
2022-12-08T15:54:08.068Z,30.72
2022-12-08T15:57:10.544Z,30.71
2022-12-08T15:59:34.405Z,30.68
2022-12-08T16:02:05.602Z,30.66
2022-12-08T16:05:25.176Z,30.66
2022-12-08T16:07:29.657Z,30.67
2022-12-08T16:09:59.948Z,30.64
2022-12-08T16:13:48.116Z,30.64
2022-12-08T16:15:55.133Z,30.61
2022-12-08T16:18:33.286Z,30.65
2022-12-08T16:23:54.774Z,30.59
2022-12-08T16:27:35.058Z,30.56
2022-12-08T16:29:22.414Z,30.55
2022-12-08T16:31:53.680Z,30.54
2022-12-08T16:34:23.957Z,30.49
2022-12-08T16:36:54.291Z,30.45
2022-12-08T16:39:25.587Z,30.44
2022-12-08T16:42:15.138Z,30.46
2022-12-08T16:44:45.717Z,30.44
2022-12-08T16:47:16.790Z,30.44
2022-12-08T16:49:47.706Z,30.42
2022-12-08T16:52:19.433Z,30.43
2022-12-08T16:54:50.524Z,30.42
2022-12-08T16:57:21.097Z,30.42
2022-12-08T16:59:52.658Z,30.37
2022-12-08T17:02:23.158Z,30.37
2022-12-08T17:04:53.640Z,30.32
2022-12-08T17:07:24.662Z,30.33
2022-12-08T17:09:55.001Z,30.32
2022-12-08T17:12:25.477Z,30.32
2022-12-08T17:14:55.821Z,30.30
2022-12-08T17:17:26.354Z,30.05
2022-12-08T17:20:09.256Z,29.94
2022-12-08T17:22:40.109Z,29.97
2022-12-08T17:25:11.075Z,29.94
2022-12-08T17:27:42.347Z,29.97
2022-12-08T17:30:16.481Z,29.97
2022-12-08T17:32:50.192Z,29.94
2022-12-08T17:35:20.927Z,29.92
2022-12-08T17:37:51.451Z,29.88
2022-12-08T17:40:23.651Z,29.87
2022-12-08T17:42:57.838Z,29.86
2022-12-08T17:45:28.136Z,29.86
2022-12-08T17:47:58.645Z,29.85
2022-12-08T17:50:29.296Z,29.83
2022-12-08T17:52:59.913Z,29.82
2022-12-08T17:55:31.010Z,29.75
2022-12-08T17:58:02.387Z,29.74
2022-12-08T18:00:33.740Z,29.71
2022-12-08T18:03:04.576Z,29.75
2022-12-08T18:05:36.263Z,29.73
2022-12-08T18:08:06.979Z,29.78
2022-12-08T18:10:37.478Z,29.73
2022-12-08T18:13:10.393Z,29.72
2022-12-08T18:15:41.023Z,29.67
2022-12-08T18:18:11.324Z,29.58
2022-12-08T18:20:42.299Z,29.64
2022-12-08T18:23:12.625Z,29.67
2022-12-08T18:25:42.682Z,29.61
2022-12-08T18:28:12.935Z,29.62
2022-12-08T18:30:43.467Z,29.60
2022-12-08T18:33:13.755Z,29.59
2022-12-08T18:35:44.242Z,29.62
2022-12-08T18:38:14.790Z,29.65
2022-12-08T18:40:44.896Z,29.57
2022-12-08T18:43:15.978Z,29.56
2022-12-08T18:45:46.845Z,29.58
2022-12-08T18:48:17.695Z,29.54
2022-12-08T18:50:49.714Z,29.58
2022-12-08T18:53:20.358Z,29.54
2022-12-08T18:55:51.939Z,29.57
2022-12-08T18:58:22.962Z,29.57
2022-12-08T19:00:53.736Z,29.54
2022-12-08T19:03:24.510Z,29.53
2022-12-08T19:06:08.162Z,29.56
2022-12-08T19:08:38.764Z,29.47
2022-12-08T19:11:25.138Z,29.52
2022-12-08T19:13:56.483Z,29.50
2022-12-08T19:16:26.973Z,29.47
2022-12-08T19:18:58.127Z,29.49
2022-12-08T19:21:28.662Z,29.49
2022-12-08T19:23:59.607Z,29.47
2022-12-08T19:26:30.520Z,29.47
2022-12-08T19:29:01.094Z,29.45
2022-12-08T19:31:31.389Z,29.50
2022-12-08T19:34:02.025Z,29.45
2022-12-08T19:36:36.338Z,29.43
2022-12-08T19:39:25.399Z,29.40
2022-12-08T19:42:14.165Z,29.40
2022-12-08T19:44:54.033Z,29.37
2022-12-08T19:47:26.358Z,29.38
2022-12-08T19:50:17.254Z,29.38
2022-12-08T19:52:47.793Z,29.39
2022-12-08T19:55:18.643Z,29.33
2022-12-08T19:57:49.227Z,29.35
2022-12-08T20:00:20.901Z,29.33
2022-12-08T20:02:52.623Z,29.37
2022-12-08T20:05:24.331Z,29.36
2022-12-08T20:07:56.653Z,29.33
2022-12-08T20:10:29.774Z,29.33
2022-12-08T20:13:18.295Z,29.28
2022-12-08T20:15:48.874Z,29.27
2022-12-08T20:18:20.053Z,29.30
2022-12-08T20:20:50.674Z,29.30
2022-12-08T20:23:21.178Z,29.30
2022-12-08T20:25:53.740Z,29.25
2022-12-08T20:28:24.773Z,29.29
2022-12-08T20:30:55.308Z,29.24
2022-12-08T20:33:26.104Z,29.26
2022-12-08T20:36:01.249Z,29.23
2022-12-08T20:38:32.229Z,29.24
2022-12-08T20:41:02.765Z,29.23
2022-12-08T20:43:33.448Z,29.19
2022-12-08T20:46:12.166Z,29.25
2022-12-08T20:48:43.832Z,29.21
2022-12-08T20:51:19.302Z,29.18
2022-12-08T20:53:49.702Z,29.15
2022-12-08T20:56:22.839Z,29.15
2022-12-08T20:58:54.273Z,29.19
2022-12-08T21:01:26.094Z,29.17
2022-12-08T21:03:56.748Z,29.18
2022-12-08T21:06:30.789Z,29.17
2022-12-08T21:09:01.580Z,29.15
2022-12-08T21:11:32.527Z,29.15
2022-12-08T21:14:04.822Z,29.22
2022-12-08T21:16:35.621Z,29.17
2022-12-08T21:19:06.937Z,29.14
2022-12-08T21:21:37.178Z,29.13
2022-12-08T21:24:08.421Z,29.11
2022-12-08T21:26:39.535Z,29.14
2022-12-08T21:29:18.352Z,29.20
2022-12-08T21:31:49.151Z,29.16
2022-12-08T21:34:19.510Z,29.18
2022-12-08T21:36:50.426Z,29.13
2022-12-08T21:39:21.066Z,29.13
2022-12-08T21:42:22.859Z,29.11
2022-12-08T21:44:53.983Z,29.15
2022-12-08T21:47:24.725Z,29.16
2022-12-08T21:49:56.027Z,29.11
2022-12-08T21:52:26.932Z,29.14
2022-12-08T21:54:57.749Z,29.13
2022-12-08T21:57:28.832Z,29.13
2022-12-08T21:59:59.634Z,29.06
2022-12-08T22:02:30.528Z,29.05
2022-12-08T22:05:01.524Z,29.06
2022-12-08T22:07:32.962Z,29.03
2022-12-08T22:10:03.913Z,29.02
2022-12-08T22:12:36.800Z,29.03
2022-12-08T22:15:09.069Z,29.05
2022-12-08T22:17:44.478Z,29.02
2022-12-08T22:20:16.377Z,29.02
2022-12-08T22:22:47.711Z,29.03
2022-12-08T22:25:18.415Z,29.05
2022-12-08T22:27:49.007Z,29.06
2022-12-08T22:30:19.486Z,29.03
2022-12-08T22:32:49.883Z,28.99
2022-12-08T22:35:20.395Z,29.01
2022-12-08T22:37:51.643Z,29.02
2022-12-08T22:40:22.414Z,29.02
2022-12-08T22:42:52.835Z,28.98
2022-12-08T22:45:24.834Z,28.95
2022-12-08T22:47:55.432Z,28.91
2022-12-08T22:50:26.470Z,28.87
2022-12-08T22:52:56.624Z,28.93
2022-12-08T22:55:27.503Z,28.92
2022-12-08T22:57:58.162Z,28.88
2022-12-08T23:00:29.390Z,28.91
2022-12-08T23:03:00.236Z,28.91
2022-12-08T23:05:35.108Z,28.91
2022-12-08T23:08:06.662Z,28.87
2022-12-08T23:10:37.676Z,28.85
2022-12-08T23:13:08.734Z,28.84
2022-12-08T23:15:40.511Z,28.85
2022-12-08T23:18:16.335Z,28.84
2022-12-08T23:20:47.679Z,28.89
2022-12-08T23:23:18.646Z,28.89
2022-12-08T23:25:49.019Z,28.84
2022-12-08T23:28:19.364Z,28.86
2022-12-08T23:30:49.953Z,28.81
2022-12-08T23:33:20.931Z,28.83
2022-12-08T23:35:59.215Z,28.83
2022-12-08T23:38:31.665Z,28.82
2022-12-08T23:41:06.543Z,28.82
2022-12-08T23:43:37.360Z,28.82
2022-12-08T23:46:08.515Z,28.85
2022-12-08T23:48:39.146Z,28.89
2022-12-08T23:51:09.793Z,28.87
2022-12-08T23:53:40.169Z,28.87
2022-12-08T23:56:17.014Z,28.88
2022-12-08T23:58:48.116Z,28.82
